sensor_id;sensor_type;location;lat;lon;timestamp;temperature;humidity
14771;DHT22;7477;45.222;5.688;2022-09-29T00:01:53;13.30;99.90
14771;DHT22;7477;45.222;5.688;2022-09-29T00:05:12;13.30;99.90
14771;DHT22;7477;45.222;5.688;2022-09-29T00:08:31;13.30;99.90
14771;DHT22;7477;45.222;5.688;2022-09-29T00:11:53;13.20;99.90
14771;DHT22;7477;45.222;5.688;2022-09-29T00:15:14;13.30;99.90
14771;DHT22;7477;45.222;5.688;2022-09-29T00:18:34;13.20;99.90
14771;DHT22;7477;45.222;5.688;2022-09-29T00:21:53;13.20;99.90
14771;DHT22;7477;45.222;5.688;2022-09-29T00:25:12;13.20;99.90
14771;DHT22;7477;45.222;5.688;2022-09-29T00:28:32;13.20;99.90
14771;DHT22;7477;45.222;5.688;2022-09-29T00:31:52;13.20;99.90
14771;DHT22;7477;45.222;5.688;2022-09-29T00:35:11;13.20;99.90
14771;DHT22;7477;45.222;5.688;2022-09-29T00:38:30;13.20;99.90
14771;DHT22;7477;45.222;5.688;2022-09-29T00:41:50;13.20;99.90
14771;DHT22;7477;45.222;5.688;2022-09-29T00:45:14;13.10;99.90
14771;DHT22;7477;45.222;5.688;2022-09-29T00:48:34;13.10;99.90
14771;DHT22;7477;45.222;5.688;2022-09-29T00:55:30;13.10;99.90
14771;DHT22;7477;45.222;5.688;2022-09-29T00:58:55;13.00;99.90
14771;DHT22;7477;45.222;5.688;2022-09-29T01:02:18;13.10;99.90
14771;DHT22;7477;45.222;5.688;2022-09-29T01:05:39;13.10;99.90
14771;DHT22;7477;45.222;5.688;2022-09-29T01:09:04;13.10;99.90
14771;DHT22;7477;45.222;5.688;2022-09-29T01:12:24;13.10;99.90
14771;DHT22;7477;45.222;5.688;2022-09-29T01:15:44;13.10;99.90
14771;DHT22;7477;45.222;5.688;2022-09-29T01:37:43;13.00;99.90
14771;DHT22;7477;45.222;5.688;2022-09-29T01:41:22;13.10;99.90
14771;DHT22;7477;45.222;5.688;2022-09-29T01:45:10;13.00;99.90
14771;DHT22;7477;45.222;5.688;2022-09-29T01:48:39;13.10;99.90
14771;DHT22;7477;45.222;5.688;2022-09-29T01:52:12;13.00;99.90
14771;DHT22;7477;45.222;5.688;2022-09-29T01:55:35;13.00;99.90
14771;DHT22;7477;45.222;5.688;2022-09-29T01:59:02;13.00;99.90
14771;DHT22;7477;45.222;5.688;2022-09-29T02:06:24;13.00;99.90
14771;DHT22;7477;45.222;5.688;2022-09-29T02:09:47;13.00;99.90
14771;DHT22;7477;45.222;5.688;2022-09-29T02:13:10;13.00;99.90
14771;DHT22;7477;45.222;5.688;2022-09-29T02:16:43;13.00;99.90
14771;DHT22;7477;45.222;5.688;2022-09-29T02:20:05;13.00;99.90
14771;DHT22;7477;45.222;5.688;2022-09-29T02:23:25;12.90;99.90
14771;DHT22;7477;45.222;5.688;2022-09-29T02:26:45;13.00;99.90
14771;DHT22;7477;45.222;5.688;2022-09-29T02:30:05;13.00;99.90
14771;DHT22;7477;45.222;5.688;2022-09-29T02:33:25;12.90;99.90
14771;DHT22;7477;45.222;5.688;2022-09-29T02:36:57;12.90;99.90
14771;DHT22;7477;45.222;5.688;2022-09-29T02:44:10;12.90;99.90
14771;DHT22;7477;45.222;5.688;2022-09-29T02:51:12;12.90;99.90
14771;DHT22;7477;45.222;5.688;2022-09-29T02:55:11;12.90;99.90
14771;DHT22;7477;45.222;5.688;2022-09-29T03:02:15;12.90;99.90
14771;DHT22;7477;45.222;5.688;2022-09-29T03:05:34;12.90;99.90
14771;DHT22;7477;45.222;5.688;2022-09-29T03:08:54;12.90;99.90
14771;DHT22;7477;45.222;5.688;2022-09-29T03:12:13;12.80;99.90
14771;DHT22;7477;45.222;5.688;2022-09-29T03:15:32;12.90;99.90
14771;DHT22;7477;45.222;5.688;2022-09-29T03:18:51;12.90;99.90
14771;DHT22;7477;45.222;5.688;2022-09-29T03:22:10;12.90;99.90
14771;DHT22;7477;45.222;5.688;2022-09-29T03:25:30;12.80;99.90
14771;DHT22;7477;45.222;5.688;2022-09-29T03:28:51;12.70;99.90
14771;DHT22;7477;45.222;5.688;2022-09-29T03:32:10;12.50;99.90
14771;DHT22;7477;45.222;5.688;2022-09-29T03:35:29;12.30;99.90
14771;DHT22;7477;45.222;5.688;2022-09-29T03:38:49;12.30;99.90
14771;DHT22;7477;45.222;5.688;2022-09-29T03:42:08;12.20;99.90
14771;DHT22;7477;45.222;5.688;2022-09-29T03:45:27;12.10;99.90
14771;DHT22;7477;45.222;5.688;2022-09-29T03:48:46;12.00;99.90
14771;DHT22;7477;45.222;5.688;2022-09-29T03:52:06;12.10;99.90
14771;DHT22;7477;45.222;5.688;2022-09-29T03:55:25;12.00;99.90
14771;DHT22;7477;45.222;5.688;2022-09-29T03:58:44;12.00;99.90
14771;DHT22;7477;45.222;5.688;2022-09-29T04:02:03;12.10;99.90
14771;DHT22;7477;45.222;5.688;2022-09-29T04:05:22;12.10;99.90
14771;DHT22;7477;45.222;5.688;2022-09-29T04:08:42;12.10;99.90
14771;DHT22;7477;45.222;5.688;2022-09-29T04:12:01;12.10;99.90
14771;DHT22;7477;45.222;5.688;2022-09-29T04:15:21;12.10;99.90
14771;DHT22;7477;45.222;5.688;2022-09-29T04:18:40;12.10;99.90
14771;DHT22;7477;45.222;5.688;2022-09-29T04:21:59;12.10;99.90
14771;DHT22;7477;45.222;5.688;2022-09-29T04:25:18;12.20;99.90
14771;DHT22;7477;45.222;5.688;2022-09-29T04:28:38;12.20;99.90
14771;DHT22;7477;45.222;5.688;2022-09-29T04:31:58;12.10;99.90
14771;DHT22;7477;45.222;5.688;2022-09-29T04:35:17;12.10;99.90
14771;DHT22;7477;45.222;5.688;2022-09-29T04:38:37;12.10;99.90
14771;DHT22;7477;45.222;5.688;2022-09-29T04:41:56;12.10;99.90
14771;DHT22;7477;45.222;5.688;2022-09-29T04:45:15;12.10;99.90
14771;DHT22;7477;45.222;5.688;2022-09-29T04:48:35;12.10;99.90
14771;DHT22;7477;45.222;5.688;2022-09-29T04:51:54;12.10;99.90
14771;DHT22;7477;45.222;5.688;2022-09-29T04:55:13;12.10;99.90
14771;DHT22;7477;45.222;5.688;2022-09-29T04:58:33;12.10;99.90
14771;DHT22;7477;45.222;5.688;2022-09-29T05:01:53;12.10;99.90
14771;DHT22;7477;45.222;5.688;2022-09-29T05:05:12;12.10;99.90
14771;DHT22;7477;45.222;5.688;2022-09-29T05:08:31;12.10;99.90
14771;DHT22;7477;45.222;5.688;2022-09-29T05:11:51;12.10;99.90
14771;DHT22;7477;45.222;5.688;2022-09-29T05:15:10;12.10;99.90
14771;DHT22;7477;45.222;5.688;2022-09-29T05:18:29;12.10;99.90
14771;DHT22;7477;45.222;5.688;2022-09-29T05:21:49;12.10;99.90
14771;DHT22;7477;45.222;5.688;2022-09-29T05:25:08;12.10;99.90
14771;DHT22;7477;45.222;5.688;2022-09-29T05:28:28;12.00;99.90
14771;DHT22;7477;45.222;5.688;2022-09-29T05:31:47;12.00;99.90
14771;DHT22;7477;45.222;5.688;2022-09-29T05:35:06;11.90;99.90
14771;DHT22;7477;45.222;5.688;2022-09-29T05:38:26;12.00;99.90
14771;DHT22;7477;45.222;5.688;2022-09-29T05:41:47;12.00;99.90
14771;DHT22;7477;45.222;5.688;2022-09-29T05:45:07;12.00;99.90
14771;DHT22;7477;45.222;5.688;2022-09-29T05:48:29;12.00;99.90
14771;DHT22;7477;45.222;5.688;2022-09-29T05:51:48;12.00;99.90
14771;DHT22;7477;45.222;5.688;2022-09-29T05:55:08;12.10;99.90
14771;DHT22;7477;45.222;5.688;2022-09-29T05:58:27;12.10;99.90
14771;DHT22;7477;45.222;5.688;2022-09-29T06:01:47;12.10;99.90
14771;DHT22;7477;45.222;5.688;2022-09-29T06:05:06;12.10;99.90
14771;DHT22;7477;45.222;5.688;2022-09-29T06:08:25;12.10;99.90
14771;DHT22;7477;45.222;5.688;2022-09-29T06:11:45;12.10;99.90
14771;DHT22;7477;45.222;5.688;2022-09-29T06:15:04;12.10;99.90
14771;DHT22;7477;45.222;5.688;2022-09-29T06:18:23;12.10;99.90
14771;DHT22;7477;45.222;5.688;2022-09-29T06:21:42;12.00;99.90
14771;DHT22;7477;45.222;5.688;2022-09-29T06:25:02;12.00;99.90
14771;DHT22;7477;45.222;5.688;2022-09-29T06:28:21;12.10;99.90
14771;DHT22;7477;45.222;5.688;2022-09-29T06:31:40;12.00;99.90
14771;DHT22;7477;45.222;5.688;2022-09-29T06:34:59;12.10;99.90
14771;DHT22;7477;45.222;5.688;2022-09-29T06:38:37;12.10;99.90
14771;DHT22;7477;45.222;5.688;2022-09-29T06:41:56;12.10;99.90
14771;DHT22;7477;45.222;5.688;2022-09-29T06:45:16;12.20;99.90
14771;DHT22;7477;45.222;5.688;2022-09-29T06:48:37;12.20;99.90
14771;DHT22;7477;45.222;5.688;2022-09-29T06:51:56;12.30;99.90
14771;DHT22;7477;45.222;5.688;2022-09-29T06:55:15;12.30;99.90
14771;DHT22;7477;45.222;5.688;2022-09-29T06:58:34;12.30;99.90
14771;DHT22;7477;45.222;5.688;2022-09-29T07:01:54;12.30;99.90
14771;DHT22;7477;45.222;5.688;2022-09-29T07:05:13;12.50;99.90
14771;DHT22;7477;45.222;5.688;2022-09-29T07:08:33;12.50;99.90
14771;DHT22;7477;45.222;5.688;2022-09-29T07:11:57;12.50;99.90
14771;DHT22;7477;45.222;5.688;2022-09-29T07:15:16;12.60;99.90
14771;DHT22;7477;45.222;5.688;2022-09-29T07:18:36;12.60;99.90
14771;DHT22;7477;45.222;5.688;2022-09-29T07:21:55;12.60;99.90
14771;DHT22;7477;45.222;5.688;2022-09-29T07:25:15;12.60;99.90
14771;DHT22;7477;45.222;5.688;2022-09-29T07:28:35;12.60;99.90
14771;DHT22;7477;45.222;5.688;2022-09-29T07:31:54;12.60;99.90
14771;DHT22;7477;45.222;5.688;2022-09-29T07:35:14;12.70;99.90
14771;DHT22;7477;45.222;5.688;2022-09-29T07:38:33;12.70;99.90
14771;DHT22;7477;45.222;5.688;2022-09-29T07:41:52;12.70;99.90
14771;DHT22;7477;45.222;5.688;2022-09-29T07:45:16;12.70;99.90
14771;DHT22;7477;45.222;5.688;2022-09-29T07:48:36;12.80;99.90
14771;DHT22;7477;45.222;5.688;2022-09-29T07:51:56;12.80;99.90
14771;DHT22;7477;45.222;5.688;2022-09-29T07:55:15;12.80;99.90
14771;DHT22;7477;45.222;5.688;2022-09-29T07:58:36;12.80;99.90
14771;DHT22;7477;45.222;5.688;2022-09-29T08:01:56;13.00;99.90
14771;DHT22;7477;45.222;5.688;2022-09-29T08:05:15;13.10;99.90
14771;DHT22;7477;45.222;5.688;2022-09-29T08:08:39;13.20;99.90
14771;DHT22;7477;45.222;5.688;2022-09-29T08:11:58;13.20;99.90
14771;DHT22;7477;45.222;5.688;2022-09-29T08:15:19;13.00;99.90
14771;DHT22;7477;45.222;5.688;2022-09-29T08:18:40;13.00;99.90
14771;DHT22;7477;45.222;5.688;2022-09-29T08:21:59;13.00;99.90
14771;DHT22;7477;45.222;5.688;2022-09-29T08:25:18;13.10;99.90
14771;DHT22;7477;45.222;5.688;2022-09-29T08:28:39;13.00;99.90
14771;DHT22;7477;45.222;5.688;2022-09-29T08:31:58;13.10;99.90
14771;DHT22;7477;45.222;5.688;2022-09-29T08:35:18;13.00;99.90
14771;DHT22;7477;45.222;5.688;2022-09-29T08:38:37;13.00;99.90
14771;DHT22;7477;45.222;5.688;2022-09-29T08:42:05;13.10;99.90
14771;DHT22;7477;45.222;5.688;2022-09-29T08:45:37;13.10;99.90
14771;DHT22;7477;45.222;5.688;2022-09-29T08:48:58;13.20;99.90
14771;DHT22;7477;45.222;5.688;2022-09-29T08:52:25;13.20;99.90
14771;DHT22;7477;45.222;5.688;2022-09-29T08:55:51;13.30;99.90
14771;DHT22;7477;45.222;5.688;2022-09-29T08:59:11;13.30;99.90
14771;DHT22;7477;45.222;5.688;2022-09-29T09:17:13;13.50;99.90
14771;DHT22;7477;45.222;5.688;2022-09-29T09:20:43;13.50;99.90
14771;DHT22;7477;45.222;5.688;2022-09-29T09:24:05;13.50;99.90
14771;DHT22;7477;45.222;5.688;2022-09-29T09:27:34;13.50;99.90
14771;DHT22;7477;45.222;5.688;2022-09-29T09:31:12;13.60;99.90
14771;DHT22;7477;45.222;5.688;2022-09-29T09:34:44;13.70;99.90
14771;DHT22;7477;45.222;5.688;2022-09-29T09:38:14;13.70;99.90
14771;DHT22;7477;45.222;5.688;2022-09-29T09:41:36;13.60;99.90
14771;DHT22;7477;45.222;5.688;2022-09-29T09:45:02;13.60;99.90
14771;DHT22;7477;45.222;5.688;2022-09-29T09:48:41;13.60;99.90
14771;DHT22;7477;45.222;5.688;2022-09-29T09:52:08;13.70;99.90
14771;DHT22;7477;45.222;5.688;2022-09-29T09:55:29;13.60;99.90
14771;DHT22;7477;45.222;5.688;2022-09-29T09:59:08;13.60;99.90
14771;DHT22;7477;45.222;5.688;2022-09-29T10:02:31;13.70;99.90
14771;DHT22;7477;45.222;5.688;2022-09-29T10:05:50;13.70;99.90
14771;DHT22;7477;45.222;5.688;2022-09-29T10:09:13;13.80;99.90
14771;DHT22;7477;45.222;5.688;2022-09-29T10:12:33;13.80;99.90
14771;DHT22;7477;45.222;5.688;2022-09-29T10:16:00;13.90;99.90
14771;DHT22;7477;45.222;5.688;2022-09-29T10:19:51;13.90;99.90
14771;DHT22;7477;45.222;5.688;2022-09-29T10:23:28;13.90;99.90
14771;DHT22;7477;45.222;5.688;2022-09-29T10:26:49;13.50;99.90
14771;DHT22;7477;45.222;5.688;2022-09-29T10:33:36;13.80;99.90
14771;DHT22;7477;45.222;5.688;2022-09-29T10:37:17;13.80;99.90
14771;DHT22;7477;45.222;5.688;2022-09-29T10:40:55;13.80;99.90
14771;DHT22;7477;45.222;5.688;2022-09-29T10:44:21;13.80;99.90
14771;DHT22;7477;45.222;5.688;2022-09-29T10:47:45;13.80;99.90
14771;DHT22;7477;45.222;5.688;2022-09-29T10:51:05;13.70;99.90
14771;DHT22;7477;45.222;5.688;2022-09-29T10:54:25;13.80;99.90
14771;DHT22;7477;45.222;5.688;2022-09-29T10:57:46;13.80;99.90
14771;DHT22;7477;45.222;5.688;2022-09-29T11:04:32;13.80;99.90
14771;DHT22;7477;45.222;5.688;2022-09-29T11:07:52;13.80;99.90
14771;DHT22;7477;45.222;5.688;2022-09-29T11:14:45;13.80;99.90
14771;DHT22;7477;45.222;5.688;2022-09-29T11:18:27;13.80;99.90
14771;DHT22;7477;45.222;5.688;2022-09-29T11:25:20;14.10;99.90
14771;DHT22;7477;45.222;5.688;2022-09-29T11:32:57;14.20;99.90
14771;DHT22;7477;45.222;5.688;2022-09-29T11:36:33;14.30;99.90
14771;DHT22;7477;45.222;5.688;2022-09-29T11:43:45;14.50;99.90
14771;DHT22;7477;45.222;5.688;2022-09-29T11:50:58;14.20;99.90
14771;DHT22;7477;45.222;5.688;2022-09-29T12:02:03;13.90;99.90
14771;DHT22;7477;45.222;5.688;2022-09-29T12:09:43;13.70;99.90
14771;DHT22;7477;45.222;5.688;2022-09-29T12:13:44;13.40;99.90
14771;DHT22;7477;45.222;5.688;2022-09-29T12:17:12;13.40;99.90
14771;DHT22;7477;45.222;5.688;2022-09-29T12:20:35;13.30;99.90
14771;DHT22;7477;45.222;5.688;2022-09-29T12:23:57;13.20;99.90
14771;DHT22;7477;45.222;5.688;2022-09-29T12:27:22;13.20;99.90
14771;DHT22;7477;45.222;5.688;2022-09-29T12:30:50;13.20;99.90
14771;DHT22;7477;45.222;5.688;2022-09-29T12:34:16;13.20;99.90
14771;DHT22;7477;45.222;5.688;2022-09-29T12:37:49;13.30;99.90
14771;DHT22;7477;45.222;5.688;2022-09-29T12:41:20;13.40;99.90
14771;DHT22;7477;45.222;5.688;2022-09-29T12:45:11;13.40;99.90
14771;DHT22;7477;45.222;5.688;2022-09-29T12:52:39;13.30;99.90
14771;DHT22;7477;45.222;5.688;2022-09-29T12:59:43;13.70;99.90
14771;DHT22;7477;45.222;5.688;2022-09-29T13:14:49;14.10;99.90
14771;DHT22;7477;45.222;5.688;2022-09-29T13:21:24;14.00;99.90
14771;DHT22;7477;45.222;5.688;2022-09-29T13:28:36;14.00;99.90
14771;DHT22;7477;45.222;5.688;2022-09-29T13:31:56;14.00;99.90
14771;DHT22;7477;45.222;5.688;2022-09-29T13:35:19;14.10;99.90
14771;DHT22;7477;45.222;5.688;2022-09-29T13:38:46;14.30;99.90
14771;DHT22;7477;45.222;5.688;2022-09-29T13:45:54;14.10;99.90
14771;DHT22;7477;45.222;5.688;2022-09-29T13:49:26;14.10;99.90
14771;DHT22;7477;45.222;5.688;2022-09-29T13:52:47;14.10;99.90
14771;DHT22;7477;45.222;5.688;2022-09-29T13:56:25;14.20;99.90
14771;DHT22;7477;45.222;5.688;2022-09-29T13:59:46;14.20;99.90
14771;DHT22;7477;45.222;5.688;2022-09-29T14:03:22;14.20;99.90
14771;DHT22;7477;45.222;5.688;2022-09-29T14:06:46;14.30;99.90
14771;DHT22;7477;45.222;5.688;2022-09-29T14:10:27;14.20;99.90
14771;DHT22;7477;45.222;5.688;2022-09-29T14:14:06;14.10;99.90
14771;DHT22;7477;45.222;5.688;2022-09-29T14:17:34;14.10;99.90
14771;DHT22;7477;45.222;5.688;2022-09-29T14:21:09;14.20;99.90
14771;DHT22;7477;45.222;5.688;2022-09-29T14:31:19;14.10;99.90
14771;DHT22;7477;45.222;5.688;2022-09-29T14:34:40;14.10;99.90
14771;DHT22;7477;45.222;5.688;2022-09-29T14:38:17;14.10;99.90
14771;DHT22;7477;45.222;5.688;2022-09-29T14:41:45;14.20;99.90
14771;DHT22;7477;45.222;5.688;2022-09-29T14:45:06;14.60;99.90
14771;DHT22;7477;45.222;5.688;2022-09-29T14:49:02;14.60;99.90
14771;DHT22;7477;45.222;5.688;2022-09-29T14:56:18;15.40;99.90
14771;DHT22;7477;45.222;5.688;2022-09-29T15:03:30;14.70;99.90
14771;DHT22;7477;45.222;5.688;2022-09-29T15:06:53;14.50;99.90
14771;DHT22;7477;45.222;5.688;2022-09-29T15:10:39;14.50;99.90
14771;DHT22;7477;45.222;5.688;2022-09-29T15:13:58;14.40;99.90
14771;DHT22;7477;45.222;5.688;2022-09-29T15:17:38;14.40;99.90
14771;DHT22;7477;45.222;5.688;2022-09-29T15:28:36;14.50;99.90
14771;DHT22;7477;45.222;5.688;2022-09-29T15:31:56;14.50;99.90
14771;DHT22;7477;45.222;5.688;2022-09-29T15:35:21;14.90;99.90
14771;DHT22;7477;45.222;5.688;2022-09-29T15:38:41;14.60;99.90
14771;DHT22;7477;45.222;5.688;2022-09-29T15:42:20;14.50;99.90
14771;DHT22;7477;45.222;5.688;2022-09-29T15:45:52;14.40;99.90
14771;DHT22;7477;45.222;5.688;2022-09-29T15:49:18;14.30;99.90
14771;DHT22;7477;45.222;5.688;2022-09-29T15:52:38;14.40;99.90
14771;DHT22;7477;45.222;5.688;2022-09-29T15:55:57;14.30;99.90
14771;DHT22;7477;45.222;5.688;2022-09-29T15:59:17;14.40;99.90
14771;DHT22;7477;45.222;5.688;2022-09-29T16:02:41;14.50;99.90
14771;DHT22;7477;45.222;5.688;2022-09-29T16:06:04;14.60;99.90
14771;DHT22;7477;45.222;5.688;2022-09-29T16:09:24;14.30;99.90
14771;DHT22;7477;45.222;5.688;2022-09-29T16:16:15;14.20;99.90
14771;DHT22;7477;45.222;5.688;2022-09-29T16:19:35;14.20;99.90
14771;DHT22;7477;45.222;5.688;2022-09-29T16:22:55;14.10;99.90
14771;DHT22;7477;45.222;5.688;2022-09-29T16:30:40;13.90;99.90
14771;DHT22;7477;45.222;5.688;2022-09-29T16:37:39;13.80;99.90
14771;DHT22;7477;45.222;5.688;2022-09-29T16:41:05;13.80;99.90
14771;DHT22;7477;45.222;5.688;2022-09-29T16:44:40;13.70;99.90
14771;DHT22;7477;45.222;5.688;2022-09-29T16:48:01;13.60;99.90
14771;DHT22;7477;45.222;5.688;2022-09-29T16:51:21;13.50;99.90
14771;DHT22;7477;45.222;5.688;2022-09-29T16:54:44;13.40;99.90
14771;DHT22;7477;45.222;5.688;2022-09-29T16:58:08;13.40;99.90
14771;DHT22;7477;45.222;5.688;2022-09-29T17:01:29;13.30;99.90
14771;DHT22;7477;45.222;5.688;2022-09-29T17:04:49;13.30;99.90
14771;DHT22;7477;45.222;5.688;2022-09-29T17:11:33;13.20;99.90
14771;DHT22;7477;45.222;5.688;2022-09-29T17:14:54;13.20;99.90
14771;DHT22;7477;45.222;5.688;2022-09-29T17:18:14;13.20;99.90
14771;DHT22;7477;45.222;5.688;2022-09-29T17:21:33;13.10;99.90
14771;DHT22;7477;45.222;5.688;2022-09-29T17:24:53;13.00;99.90
14771;DHT22;7477;45.222;5.688;2022-09-29T17:28:21;13.00;99.90
14771;DHT22;7477;45.222;5.688;2022-09-29T17:31:42;12.90;99.90
14771;DHT22;7477;45.222;5.688;2022-09-29T17:35:02;12.80;99.90
14771;DHT22;7477;45.222;5.688;2022-09-29T17:38:22;12.70;99.90
14771;DHT22;7477;45.222;5.688;2022-09-29T17:41:41;12.60;99.90
14771;DHT22;7477;45.222;5.688;2022-09-29T17:45:00;12.60;99.90
14771;DHT22;7477;45.222;5.688;2022-09-29T17:48:22;12.50;99.90
14771;DHT22;7477;45.222;5.688;2022-09-29T17:51:42;12.40;99.90
14771;DHT22;7477;45.222;5.688;2022-09-29T17:55:01;12.40;99.90
14771;DHT22;7477;45.222;5.688;2022-09-29T17:58:21;12.30;99.90
14771;DHT22;7477;45.222;5.688;2022-09-29T18:01:41;12.30;99.90
14771;DHT22;7477;45.222;5.688;2022-09-29T18:05:00;12.20;99.90
14771;DHT22;7477;45.222;5.688;2022-09-29T18:08:20;12.20;99.90
14771;DHT22;7477;45.222;5.688;2022-09-29T18:11:40;12.20;99.90
14771;DHT22;7477;45.222;5.688;2022-09-29T18:14:59;12.10;99.90
14771;DHT22;7477;45.222;5.688;2022-09-29T18:18:21;11.30;99.90
14771;DHT22;7477;45.222;5.688;2022-09-29T18:21:40;12.00;99.90
14771;DHT22;7477;45.222;5.688;2022-09-29T18:25:00;12.00;99.90
14771;DHT22;7477;45.222;5.688;2022-09-29T18:28:19;12.00;99.90
14771;DHT22;7477;45.222;5.688;2022-09-29T18:31:38;11.90;99.90
14771;DHT22;7477;45.222;5.688;2022-09-29T18:34:58;11.90;99.90
14771;DHT22;7477;45.222;5.688;2022-09-29T18:38:17;11.90;99.90
14771;DHT22;7477;45.222;5.688;2022-09-29T18:41:37;11.90;99.90
14771;DHT22;7477;45.222;5.688;2022-09-29T18:44:56;11.80;99.90
14771;DHT22;7477;45.222;5.688;2022-09-29T18:48:15;11.80;99.90
14771;DHT22;7477;45.222;5.688;2022-09-29T18:51:35;11.70;99.90
14771;DHT22;7477;45.222;5.688;2022-09-29T18:54:56;11.70;99.90
14771;DHT22;7477;45.222;5.688;2022-09-29T18:58:18;11.70;99.90
14771;DHT22;7477;45.222;5.688;2022-09-29T19:01:38;11.70;99.90
14771;DHT22;7477;45.222;5.688;2022-09-29T19:04:58;11.60;99.90
14771;DHT22;7477;45.222;5.688;2022-09-29T19:08:17;11.60;99.90
14771;DHT22;7477;45.222;5.688;2022-09-29T19:11:37;11.50;99.90
14771;DHT22;7477;45.222;5.688;2022-09-29T19:14:57;11.40;99.90
14771;DHT22;7477;45.222;5.688;2022-09-29T19:18:21;11.50;99.90
14771;DHT22;7477;45.222;5.688;2022-09-29T19:21:41;11.40;99.90
14771;DHT22;7477;45.222;5.688;2022-09-29T19:25:02;11.40;99.90
14771;DHT22;7477;45.222;5.688;2022-09-29T19:28:22;11.40;99.90
14771;DHT22;7477;45.222;5.688;2022-09-29T19:31:44;11.40;99.90
14771;DHT22;7477;45.222;5.688;2022-09-29T19:35:09;11.40;99.90
14771;DHT22;7477;45.222;5.688;2022-09-29T19:38:30;11.40;99.90
14771;DHT22;7477;45.222;5.688;2022-09-29T19:41:49;11.40;99.90
14771;DHT22;7477;45.222;5.688;2022-09-29T19:45:09;11.40;99.90
14771;DHT22;7477;45.222;5.688;2022-09-29T19:48:28;11.40;99.90
14771;DHT22;7477;45.222;5.688;2022-09-29T19:51:47;11.40;99.90
14771;DHT22;7477;45.222;5.688;2022-09-29T19:55:15;11.40;99.90
14771;DHT22;7477;45.222;5.688;2022-09-29T19:58:35;11.40;99.90
14771;DHT22;7477;45.222;5.688;2022-09-29T20:01:57;11.40;99.90
14771;DHT22;7477;45.222;5.688;2022-09-29T20:05:17;11.40;99.90
14771;DHT22;7477;45.222;5.688;2022-09-29T20:08:37;11.40;99.90
14771;DHT22;7477;45.222;5.688;2022-09-29T20:11:57;11.40;99.90
14771;DHT22;7477;45.222;5.688;2022-09-29T20:15:17;11.40;99.90
14771;DHT22;7477;45.222;5.688;2022-09-29T20:18:36;11.40;99.90
14771;DHT22;7477;45.222;5.688;2022-09-29T20:21:55;11.40;99.90
14771;DHT22;7477;45.222;5.688;2022-09-29T20:25:15;11.40;99.90
14771;DHT22;7477;45.222;5.688;2022-09-29T20:28:38;11.40;99.90
14771;DHT22;7477;45.222;5.688;2022-09-29T20:31:58;11.40;99.90
14771;DHT22;7477;45.222;5.688;2022-09-29T20:35:17;11.30;99.90
14771;DHT22;7477;45.222;5.688;2022-09-29T20:38:41;11.30;99.90
14771;DHT22;7477;45.222;5.688;2022-09-29T20:42:01;11.30;99.90
14771;DHT22;7477;45.222;5.688;2022-09-29T20:45:21;11.30;99.90
14771;DHT22;7477;45.222;5.688;2022-09-29T20:48:41;11.40;99.90
14771;DHT22;7477;45.222;5.688;2022-09-29T20:52:01;11.30;99.90
14771;DHT22;7477;45.222;5.688;2022-09-29T20:55:20;11.30;99.90
14771;DHT22;7477;45.222;5.688;2022-09-29T20:58:40;11.20;99.90
14771;DHT22;7477;45.222;5.688;2022-09-29T21:02:02;11.20;99.90
14771;DHT22;7477;45.222;5.688;2022-09-29T21:05:21;11.10;99.90
14771;DHT22;7477;45.222;5.688;2022-09-29T21:08:41;11.10;99.90
14771;DHT22;7477;45.222;5.688;2022-09-29T21:12:00;11.10;99.90
14771;DHT22;7477;45.222;5.688;2022-09-29T21:15:21;11.10;99.90
14771;DHT22;7477;45.222;5.688;2022-09-29T21:18:40;11.10;99.90
14771;DHT22;7477;45.222;5.688;2022-09-29T21:22:00;11.00;99.90
14771;DHT22;7477;45.222;5.688;2022-09-29T21:25:19;10.90;99.90
14771;DHT22;7477;45.222;5.688;2022-09-29T21:28:41;10.90;99.90
14771;DHT22;7477;45.222;5.688;2022-09-29T21:32:00;10.80;99.90
14771;DHT22;7477;45.222;5.688;2022-09-29T21:35:20;10.90;99.90
14771;DHT22;7477;45.222;5.688;2022-09-29T21:38:40;10.80;99.90
14771;DHT22;7477;45.222;5.688;2022-09-29T21:42:00;10.80;99.90
14771;DHT22;7477;45.222;5.688;2022-09-29T21:45:19;10.80;99.90
14771;DHT22;7477;45.222;5.688;2022-09-29T21:48:39;10.70;99.90
14771;DHT22;7477;45.222;5.688;2022-09-29T21:52:01;10.70;99.90
14771;DHT22;7477;45.222;5.688;2022-09-29T21:55:20;10.60;99.90
14771;DHT22;7477;45.222;5.688;2022-09-29T21:58:39;10.50;99.90
14771;DHT22;7477;45.222;5.688;2022-09-29T22:01:58;10.50;99.90
14771;DHT22;7477;45.222;5.688;2022-09-29T22:05:21;10.50;99.90
14771;DHT22;7477;45.222;5.688;2022-09-29T22:08:41;10.40;99.90
14771;DHT22;7477;45.222;5.688;2022-09-29T22:12:01;10.40;99.90
14771;DHT22;7477;45.222;5.688;2022-09-29T22:15:20;10.30;99.90
14771;DHT22;7477;45.222;5.688;2022-09-29T22:18:40;10.30;99.90
14771;DHT22;7477;45.222;5.688;2022-09-29T22:21:59;10.20;99.90
14771;DHT22;7477;45.222;5.688;2022-09-29T22:25:19;10.20;99.90
14771;DHT22;7477;45.222;5.688;2022-09-29T22:28:39;10.20;99.90
14771;DHT22;7477;45.222;5.688;2022-09-29T22:31:58;10.20;99.90
14771;DHT22;7477;45.222;5.688;2022-09-29T22:35:17;10.10;99.90
14771;DHT22;7477;45.222;5.688;2022-09-29T22:38:39;10.10;99.90
14771;DHT22;7477;45.222;5.688;2022-09-29T22:42:03;10.20;99.90
14771;DHT22;7477;45.222;5.688;2022-09-29T22:45:23;10.20;99.90
14771;DHT22;7477;45.222;5.688;2022-09-29T22:48:42;10.20;99.90
14771;DHT22;7477;45.222;5.688;2022-09-29T22:52:01;10.00;99.90
14771;DHT22;7477;45.222;5.688;2022-09-29T22:55:27;10.00;99.90
14771;DHT22;7477;45.222;5.688;2022-09-29T22:58:47;10.00;99.90
14771;DHT22;7477;45.222;5.688;2022-09-29T23:02:07;9.90;99.90
14771;DHT22;7477;45.222;5.688;2022-09-29T23:05:26;9.90;99.90
14771;DHT22;7477;45.222;5.688;2022-09-29T23:08:46;10.00;99.90
14771;DHT22;7477;45.222;5.688;2022-09-29T23:12:05;10.00;99.90
14771;DHT22;7477;45.222;5.688;2022-09-29T23:15:26;10.00;99.90
14771;DHT22;7477;45.222;5.688;2022-09-29T23:18:45;10.00;99.90
14771;DHT22;7477;45.222;5.688;2022-09-29T23:22:05;9.90;99.90
14771;DHT22;7477;45.222;5.688;2022-09-29T23:25:24;9.80;99.90
14771;DHT22;7477;45.222;5.688;2022-09-29T23:28:44;9.80;99.90
14771;DHT22;7477;45.222;5.688;2022-09-29T23:32:03;9.80;99.90
14771;DHT22;7477;45.222;5.688;2022-09-29T23:35:22;9.80;99.90
14771;DHT22;7477;45.222;5.688;2022-09-29T23:38:42;9.80;99.90
14771;DHT22;7477;45.222;5.688;2022-09-29T23:42:21;9.80;99.90
14771;DHT22;7477;45.222;5.688;2022-09-29T23:45:40;9.80;99.90
14771;DHT22;7477;45.222;5.688;2022-09-29T23:49:01;9.70;99.90
14771;DHT22;7477;45.222;5.688;2022-09-29T23:52:20;9.70;99.90
14771;DHT22;7477;45.222;5.688;2022-09-29T23:55:40;9.70;99.90
14771;DHT22;7477;45.222;5.688;2022-09-29T23:58:59;9.60;99.90
